createdAt,value
2018-06-29T00:02:08.191Z,80.70
2018-06-29T00:04:37.026Z,80.60
2018-06-29T00:07:05.766Z,80.80
2018-06-29T00:09:34.429Z,80.70
2018-06-29T00:12:02.879Z,80.90
2018-06-29T00:14:31.409Z,81.30
2018-06-29T00:17:00.206Z,81.70
2018-06-29T00:19:28.742Z,82.00
2018-06-29T00:21:57.618Z,82.10
2018-06-29T00:24:26.654Z,82.30
2018-06-29T00:26:55.230Z,82.70
2018-06-29T00:29:23.730Z,83.00
2018-06-29T00:31:53.192Z,83.30
2018-06-29T00:34:21.772Z,83.30
2018-06-29T00:36:50.320Z,83.70
2018-06-29T00:39:18.806Z,83.80
2018-06-29T00:41:47.342Z,84.00
2018-06-29T00:44:15.820Z,84.00
2018-06-29T00:46:44.326Z,84.40
2018-06-29T00:49:12.787Z,84.30
2018-06-29T00:51:41.338Z,84.50
2018-06-29T00:54:09.850Z,84.60
2018-06-29T00:56:38.285Z,85.10
2018-06-29T00:59:06.774Z,85.10
2018-06-29T01:01:35.363Z,85.30
2018-06-29T01:04:03.904Z,85.20
2018-06-29T01:06:32.406Z,85.00
2018-06-29T01:09:00.869Z,85.30
2018-06-29T01:11:29.398Z,85.50
2018-06-29T01:13:57.966Z,86.10
2018-06-29T01:18:54.746Z,86.90
2018-06-29T01:21:23.310Z,87.10
2018-06-29T01:23:51.802Z,87.70
2018-06-29T01:26:20.252Z,88.00
2018-06-29T01:28:48.691Z,88.60
2018-06-29T01:31:17.120Z,89.10
2018-06-29T01:33:45.592Z,89.20
2018-06-29T01:36:14.061Z,89.90
2018-06-29T01:38:42.485Z,89.60
2018-06-29T01:41:11.011Z,89.50
2018-06-29T01:43:39.443Z,89.30
2018-06-29T01:46:07.869Z,89.20
2018-06-29T01:48:36.306Z,89.20
2018-06-29T01:51:04.779Z,89.00
2018-06-29T01:53:33.279Z,89.00
2018-06-29T01:56:01.798Z,89.00
2018-06-29T01:58:30.334Z,89.30
2018-06-29T02:00:58.831Z,89.60
2018-06-29T02:03:27.402Z,89.70
2018-06-29T02:05:55.917Z,89.80
2018-06-29T02:08:24.506Z,90.00
2018-06-29T02:10:53.054Z,90.10
2018-06-29T02:13:21.469Z,90.00
2018-06-29T02:15:49.955Z,90.00
2018-06-29T02:18:18.454Z,89.80
2018-06-29T02:20:46.979Z,89.60
2018-06-29T02:23:15.421Z,89.50
2018-06-29T02:25:44.065Z,89.00
2018-06-29T02:28:12.541Z,88.90
2018-06-29T02:30:41.090Z,88.90
2018-06-29T02:35:38.682Z,88.40
2018-06-29T02:38:07.203Z,88.80
2018-06-29T02:40:35.666Z,87.60
2018-06-29T02:43:04.204Z,87.60
2018-06-29T02:45:32.746Z,87.30
2018-06-29T02:48:01.210Z,87.30
2018-06-29T02:50:29.635Z,87.10
2018-06-29T02:52:58.110Z,87.60
2018-06-29T02:55:26.587Z,87.80
2018-06-29T02:57:55.082Z,88.00
2018-06-29T03:00:23.600Z,88.00
2018-06-29T03:02:52.115Z,87.80
2018-06-29T03:05:20.610Z,87.80
2018-06-29T03:07:49.136Z,87.50
2018-06-29T03:10:17.800Z,87.30
2018-06-29T03:12:46.214Z,87.50
2018-06-29T03:15:14.740Z,87.30
2018-06-29T03:17:43.185Z,87.40
2018-06-29T03:20:11.601Z,87.70
2018-06-29T03:22:40.142Z,87.90
2018-06-29T03:25:08.728Z,88.10
2018-06-29T03:27:37.174Z,88.30
2018-06-29T03:30:05.773Z,88.40
2018-06-29T03:32:34.430Z,88.30
2018-06-29T03:35:02.978Z,88.30
2018-06-29T03:37:31.479Z,88.30
2018-06-29T03:39:59.966Z,88.50
2018-06-29T03:42:28.491Z,88.60
2018-06-29T03:47:25.154Z,89.00
2018-06-29T03:52:21.930Z,88.90
2018-06-29T03:54:50.458Z,88.90
2018-06-29T03:57:19.003Z,88.70
2018-06-29T03:59:47.454Z,88.80
2018-06-29T04:02:15.944Z,88.90
2018-06-29T04:04:44.436Z,88.70
2018-06-29T04:07:12.910Z,88.70
2018-06-29T04:09:41.408Z,88.80
2018-06-29T04:12:09.929Z,89.40
2018-06-29T04:14:38.399Z,89.70
2018-06-29T04:17:06.878Z,89.40
2018-06-29T04:19:35.398Z,89.10
2018-06-29T04:22:03.895Z,89.10
2018-06-29T04:24:32.442Z,89.60
2018-06-29T04:27:00.958Z,89.60
2018-06-29T04:29:29.443Z,90.10
2018-06-29T04:36:54.379Z,90.30
2018-06-29T04:39:22.850Z,90.50
2018-06-29T04:41:51.541Z,90.70
2018-06-29T04:44:19.998Z,90.70
2018-06-29T04:46:50.086Z,90.70
2018-06-29T04:49:18.705Z,90.90
2018-06-29T04:51:47.157Z,91.10
2018-06-29T04:54:15.583Z,91.30
2018-06-29T04:56:44.146Z,91.60
2018-06-29T04:59:12.714Z,91.70
2018-06-29T05:01:41.186Z,91.90
2018-06-29T05:04:09.634Z,92.00
2018-06-29T05:06:38.126Z,92.10
2018-06-29T05:09:08.055Z,92.00
2018-06-29T05:11:36.960Z,91.60
2018-06-29T05:14:05.506Z,91.60
2018-06-29T05:16:34.018Z,91.30
2018-06-29T05:19:02.825Z,90.50
2018-06-29T05:21:31.366Z,90.30
2018-06-29T05:23:59.884Z,89.50
2018-06-29T05:26:28.345Z,88.60
2018-06-29T05:28:56.850Z,87.00
2018-06-29T05:31:25.381Z,86.20
2018-06-29T05:33:54.152Z,84.90
2018-06-29T05:36:22.671Z,84.10
2018-06-29T05:38:51.240Z,83.70
2018-06-29T05:41:19.745Z,82.50
2018-06-29T05:43:48.298Z,81.10
2018-06-29T05:46:16.847Z,80.30
2018-06-29T05:48:45.233Z,78.30
2018-06-29T05:51:13.763Z,76.10
2018-06-29T05:53:42.194Z,71.50
2018-06-29T05:56:10.638Z,70.60
2018-06-29T05:58:39.210Z,69.90
2018-06-29T06:01:10.590Z,69.60
2018-06-29T06:03:39.087Z,69.50
2018-06-29T06:06:08.350Z,67.60
2018-06-29T06:08:37.010Z,65.60
2018-06-29T06:11:05.773Z,65.00
2018-06-29T06:13:34.646Z,64.00
2018-06-29T06:16:03.223Z,63.00
2018-06-29T06:18:31.662Z,61.80
2018-06-29T06:21:00.277Z,61.20
2018-06-29T06:23:28.842Z,60.90
2018-06-29T06:25:57.312Z,61.40
2018-06-29T06:28:26.519Z,60.90
2018-06-29T06:30:54.997Z,60.10
2018-06-29T06:33:23.426Z,59.80
2018-06-29T06:35:51.906Z,59.30
2018-06-29T06:38:20.374Z,59.10
2018-06-29T06:40:48.818Z,58.90
2018-06-29T06:43:17.277Z,58.10
2018-06-29T06:45:45.769Z,58.10
2018-06-29T06:48:14.273Z,58.00
2018-06-29T06:50:42.838Z,57.10
2018-06-29T06:53:11.274Z,57.00
2018-06-29T06:55:39.808Z,56.60
2018-06-29T06:58:08.321Z,56.00
2018-06-29T07:00:36.819Z,55.70
2018-06-29T07:03:05.378Z,55.40
2018-06-29T07:05:33.907Z,56.00
2018-06-29T07:08:02.387Z,55.60
2018-06-29T07:10:30.858Z,55.50
2018-06-29T07:12:59.458Z,55.40
2018-06-29T07:15:28.035Z,55.40
2018-06-29T07:17:56.557Z,55.00
2018-06-29T07:20:25.026Z,54.70
2018-06-29T07:25:21.703Z,54.40
2018-06-29T07:27:50.126Z,54.40
2018-06-29T07:30:18.978Z,54.50
2018-06-29T07:32:47.468Z,54.80
2018-06-29T07:35:15.919Z,54.60
2018-06-29T07:37:44.430Z,54.70
2018-06-29T07:40:12.974Z,54.30
2018-06-29T07:42:41.777Z,54.00
2018-06-29T07:45:10.334Z,54.00
2018-06-29T07:47:38.847Z,53.30
2018-06-29T07:50:07.406Z,52.80
2018-06-29T07:52:35.869Z,52.90
2018-06-29T07:55:04.456Z,52.20
2018-06-29T07:57:32.918Z,51.80
2018-06-29T08:00:01.463Z,52.00
2018-06-29T08:02:30.110Z,51.60
2018-06-29T08:04:58.679Z,52.00
2018-06-29T08:07:27.386Z,51.70
2018-06-29T08:09:55.947Z,51.20
2018-06-29T08:12:24.490Z,50.50
2018-06-29T08:14:52.949Z,50.00
2018-06-29T08:17:21.790Z,49.50
2018-06-29T08:19:50.363Z,48.80
2018-06-29T08:22:18.818Z,49.70
2018-06-29T08:24:58.695Z,49.60
2018-06-29T08:27:27.417Z,49.00
2018-06-29T08:29:56.102Z,48.70
2018-06-29T08:32:24.644Z,48.50
2018-06-29T08:34:53.526Z,49.10
2018-06-29T08:37:22.070Z,49.50
2018-06-29T08:39:50.770Z,49.90
2018-06-29T08:42:19.507Z,49.70
2018-06-29T08:44:48.170Z,49.70
2018-06-29T08:47:17.003Z,49.50
2018-06-29T08:49:45.666Z,49.10
2018-06-29T08:52:14.195Z,49.50
2018-06-29T08:54:43.166Z,48.80
2018-06-29T08:57:11.820Z,49.00
2018-06-29T08:59:40.536Z,49.00
2018-06-29T09:04:37.989Z,48.20
2018-06-29T09:07:07.465Z,47.60
2018-06-29T09:09:35.982Z,48.00
2018-06-29T09:12:04.807Z,47.90
2018-06-29T09:14:33.459Z,48.60
2018-06-29T09:17:03.227Z,48.40
2018-06-29T09:19:31.778Z,49.40
2018-06-29T09:24:28.664Z,49.70
2018-06-29T09:26:57.055Z,49.00
2018-06-29T09:29:25.770Z,48.40
2018-06-29T09:31:54.482Z,47.80
2018-06-29T09:34:22.905Z,47.10
2018-06-29T09:36:51.414Z,46.40
2018-06-29T09:39:19.951Z,45.80
2018-06-29T09:41:48.668Z,45.90
2018-06-29T09:44:17.290Z,45.60
2018-06-29T09:46:46.056Z,45.70
2018-06-29T09:49:14.710Z,45.50
2018-06-29T09:51:43.527Z,45.00
2018-06-29T09:54:13.263Z,44.60
2018-06-29T09:56:41.707Z,44.70
2018-06-29T09:59:10.379Z,44.40
2018-06-29T10:01:38.974Z,43.40
2018-06-29T10:04:07.589Z,44.20
2018-06-29T10:06:36.282Z,44.90
2018-06-29T10:09:07.573Z,45.30
2018-06-29T10:11:36.090Z,45.60
2018-06-29T10:14:04.881Z,45.10
2018-06-29T10:16:33.434Z,44.30
2018-06-29T10:21:30.258Z,46.20
2018-06-29T10:23:58.729Z,46.00
2018-06-29T10:26:27.229Z,47.00
2018-06-29T10:28:55.788Z,47.20
2018-06-29T10:31:24.328Z,46.40
2018-06-29T10:33:52.864Z,45.70
2018-06-29T10:36:21.478Z,45.70
2018-06-29T10:38:49.904Z,44.00
2018-06-29T10:41:18.394Z,44.90
2018-06-29T10:43:46.866Z,45.20
2018-06-29T10:46:15.514Z,44.40
2018-06-29T10:48:44.015Z,44.80
2018-06-29T10:51:12.515Z,43.50
2018-06-29T10:53:41.118Z,42.90
2018-06-29T10:56:09.642Z,41.80
2018-06-29T10:58:38.577Z,42.00
2018-06-29T11:01:07.361Z,42.20
2018-06-29T11:03:35.872Z,42.00
2018-06-29T11:06:04.350Z,42.20
2018-06-29T11:08:32.859Z,42.00
2018-06-29T11:11:01.359Z,39.70
2018-06-29T11:13:29.855Z,40.20
2018-06-29T11:15:58.927Z,40.50
2018-06-29T11:18:27.403Z,40.70
2018-06-29T11:20:56.034Z,39.50
2018-06-29T11:23:24.539Z,39.30
2018-06-29T11:25:53.014Z,40.10
2018-06-29T11:28:21.478Z,39.40
2018-06-29T11:30:50.014Z,39.40
2018-06-29T11:33:18.512Z,40.80
2018-06-29T11:35:47.124Z,40.80
2018-06-29T11:38:15.603Z,40.20
2018-06-29T11:40:44.025Z,40.30
2018-06-29T11:43:12.539Z,39.50
2018-06-29T11:45:41.002Z,38.80
2018-06-29T11:48:09.493Z,38.80
2018-06-29T11:50:37.973Z,37.40
2018-06-29T11:53:06.594Z,36.90
2018-06-29T11:55:35.218Z,33.30
2018-06-29T11:58:03.789Z,31.80
2018-06-29T12:00:33.007Z,32.70
2018-06-29T12:03:01.427Z,34.30
2018-06-29T12:05:29.966Z,34.90
2018-06-29T12:07:58.530Z,34.10
2018-06-29T12:10:27.094Z,32.70
2018-06-29T12:12:55.635Z,35.00
2018-06-29T12:17:52.375Z,35.80
2018-06-29T12:20:20.834Z,36.00
2018-06-29T12:22:49.273Z,36.10
2018-06-29T12:25:17.730Z,36.90
2018-06-29T12:27:46.244Z,36.90
2018-06-29T12:30:14.694Z,36.30
2018-06-29T12:32:43.154Z,36.70
2018-06-29T12:35:11.590Z,37.50
2018-06-29T12:37:40.195Z,36.60
2018-06-29T12:40:08.713Z,36.50
2018-06-29T12:42:37.236Z,36.60
2018-06-29T12:45:05.825Z,36.50
2018-06-29T12:47:34.326Z,35.90
2018-06-29T12:50:02.885Z,36.00
2018-06-29T12:52:31.484Z,35.70
2018-06-29T12:55:00.330Z,36.40
2018-06-29T12:57:28.867Z,36.80
2018-06-29T12:59:57.406Z,35.60
2018-06-29T13:02:25.868Z,35.10
2018-06-29T13:04:54.320Z,36.30
2018-06-29T13:07:22.824Z,35.90
2018-06-29T13:09:51.258Z,35.20
2018-06-29T13:12:19.674Z,37.40
2018-06-29T13:14:48.174Z,38.10
2018-06-29T13:17:16.751Z,38.30
2018-06-29T13:19:45.251Z,38.00
2018-06-29T13:22:13.998Z,38.80
2018-06-29T13:24:42.459Z,37.70
2018-06-29T13:27:10.914Z,37.40
2018-06-29T13:29:39.436Z,36.90
2018-06-29T13:32:08.393Z,36.80
2018-06-29T13:34:36.893Z,35.70
2018-06-29T13:37:05.458Z,37.20
2018-06-29T13:39:33.945Z,37.60
2018-06-29T13:42:02.458Z,37.00
2018-06-29T13:44:31.947Z,37.00
2018-06-29T13:47:00.458Z,37.60
2018-06-29T13:49:28.930Z,37.30
2018-06-29T13:51:57.546Z,34.80
2018-06-29T13:54:26.047Z,32.20
2018-06-29T13:56:54.529Z,33.00
2018-06-29T13:59:23.098Z,34.20
2018-06-29T14:01:51.614Z,34.40
2018-06-29T14:04:20.078Z,32.30
2018-06-29T14:06:48.582Z,33.60
2018-06-29T14:09:17.081Z,30.20
2018-06-29T14:11:45.552Z,29.50
2018-06-29T14:14:14.129Z,29.00
2018-06-29T14:16:48.301Z,28.90
2018-06-29T14:19:17.115Z,33.00
2018-06-29T14:21:45.682Z,33.80
2018-06-29T14:24:14.354Z,36.90
2018-06-29T14:26:42.894Z,37.70
2018-06-29T14:29:11.390Z,37.00
2018-06-29T14:31:39.854Z,35.70
2018-06-29T14:34:08.364Z,36.30
2018-06-29T14:36:37.790Z,37.70
2018-06-29T14:39:08.622Z,38.10
2018-06-29T14:41:37.242Z,38.90
2018-06-29T14:44:06.406Z,39.60
2018-06-29T14:46:34.990Z,36.80
2018-06-29T14:49:03.544Z,37.50
2018-06-29T14:51:32.009Z,36.70
2018-06-29T14:54:00.487Z,36.40
2018-06-29T14:56:28.977Z,37.60
2018-06-29T14:58:57.735Z,41.10
2018-06-29T15:01:29.528Z,42.20
2018-06-29T15:03:58.097Z,42.00
2018-06-29T15:06:26.679Z,42.00
2018-06-29T15:08:55.378Z,42.30
2018-06-29T15:11:23.970Z,43.40
2018-06-29T15:13:52.918Z,43.10
2018-06-29T15:16:21.367Z,43.90
2018-06-29T15:18:49.964Z,44.10
2018-06-29T15:21:18.435Z,44.40
2018-06-29T15:23:47.014Z,43.40
2018-06-29T15:26:16.828Z,43.70
2018-06-29T15:28:45.613Z,43.80
2018-06-29T15:31:14.598Z,43.80
2018-06-29T15:33:43.078Z,43.50
2018-06-29T15:36:11.607Z,43.70
2018-06-29T15:38:40.103Z,43.90
2018-06-29T15:41:08.666Z,43.80
2018-06-29T15:43:37.125Z,43.20
2018-06-29T15:46:06.211Z,42.70
2018-06-29T15:48:34.678Z,43.10
2018-06-29T15:51:03.134Z,43.30
2018-06-29T15:53:31.635Z,43.80
2018-06-29T15:56:00.087Z,44.00
2018-06-29T15:58:28.602Z,43.40
2018-06-29T16:00:57.470Z,42.30
2018-06-29T16:04:55.133Z,41.50
2018-06-29T16:07:23.746Z,40.00
2018-06-29T16:09:53.292Z,39.90
2018-06-29T16:12:22.524Z,39.40
2018-06-29T16:14:51.241Z,39.20
2018-06-29T16:17:23.762Z,40.40
2018-06-29T16:19:54.546Z,42.00
2018-06-29T16:22:24.568Z,42.00
2018-06-29T16:24:54.684Z,40.10
2018-06-29T16:27:25.262Z,39.00
2018-06-29T16:29:55.160Z,39.50
2018-06-29T16:32:25.761Z,39.50
2018-06-29T16:34:56.426Z,39.70
2018-06-29T16:37:25.247Z,40.70
2018-06-29T16:39:57.065Z,40.60
2018-06-29T16:44:53.819Z,38.70
2018-06-29T16:47:22.391Z,37.10
2018-06-29T16:49:50.882Z,35.60
2018-06-29T16:52:20.779Z,34.60
2018-06-29T16:54:49.438Z,33.90
2018-06-29T16:58:20.749Z,32.30
2018-06-29T17:00:51.054Z,32.30
2018-06-29T17:03:19.687Z,33.40
2018-06-29T17:05:48.299Z,34.60
2018-06-29T17:08:17.100Z,35.50
2018-06-29T17:10:45.771Z,35.50
2018-06-29T17:13:15.445Z,35.00
2018-06-29T17:18:12.667Z,34.20
2018-06-29T17:20:41.187Z,37.60
2018-06-29T17:23:09.749Z,39.20
2018-06-29T17:25:38.246Z,38.90
2018-06-29T17:28:06.877Z,38.10
2018-06-29T17:30:35.347Z,37.40
2018-06-29T17:33:03.801Z,37.80
2018-06-29T17:35:32.382Z,39.40
2018-06-29T17:38:00.936Z,39.70
2018-06-29T17:40:29.422Z,40.70
2018-06-29T17:42:57.876Z,42.70
2018-06-29T17:45:27.675Z,44.10
2018-06-29T17:47:56.598Z,43.30
2018-06-29T17:50:25.053Z,41.60
2018-06-29T17:52:53.831Z,40.20
2018-06-29T17:55:22.384Z,39.30
2018-06-29T17:57:50.882Z,38.70
2018-06-29T18:00:22.141Z,38.90
2018-06-29T18:02:51.716Z,39.60
2018-06-29T18:05:20.283Z,41.30
2018-06-29T18:07:48.783Z,43.20
2018-06-29T18:10:17.390Z,45.10
2018-06-29T18:12:45.894Z,46.80
2018-06-29T18:15:14.438Z,48.70
2018-06-29T18:17:42.904Z,49.10
2018-06-29T18:20:11.359Z,50.00
2018-06-29T18:22:39.942Z,50.60
2018-06-29T18:27:36.718Z,51.30
2018-06-29T18:30:05.886Z,52.00
2018-06-29T18:32:34.394Z,52.80
2018-06-29T18:39:59.529Z,54.20
2018-06-29T18:44:59.344Z,55.20
2018-06-29T18:47:28.288Z,55.70
2018-06-29T18:49:58.755Z,56.00
2018-06-29T18:52:31.009Z,56.20
2018-06-29T18:55:01.263Z,57.00
2018-06-29T18:57:30.546Z,57.30
2018-06-29T18:59:59.642Z,57.40
2018-06-29T19:02:28.348Z,58.00
2018-06-29T19:04:56.934Z,58.40
2018-06-29T19:07:25.494Z,58.90
2018-06-29T19:09:53.954Z,59.60
2018-06-29T19:12:22.622Z,60.00
2018-06-29T19:14:55.257Z,60.30
2018-06-29T19:17:23.915Z,60.70
2018-06-29T19:19:52.446Z,61.20
2018-06-29T19:22:21.588Z,61.60
2018-06-29T19:24:51.417Z,61.60
2018-06-29T19:27:19.958Z,62.10
2018-06-29T19:29:48.442Z,62.00
2018-06-29T19:32:17.183Z,62.30
2018-06-29T19:34:45.685Z,62.30
2018-06-29T19:37:24.076Z,62.20
2018-06-29T19:39:57.346Z,62.40
2018-06-29T19:47:48.350Z,62.90
2018-06-29T19:50:16.971Z,63.40
2018-06-29T19:52:45.612Z,63.30
2018-06-29T19:55:14.143Z,63.40
2018-06-29T19:57:42.610Z,63.70
2018-06-29T20:02:39.438Z,64.20
2018-06-29T20:05:08.186Z,64.40
2018-06-29T20:07:36.646Z,64.80
2018-06-29T20:10:05.584Z,65.00
2018-06-29T20:12:34.279Z,65.50
2018-06-29T20:15:02.874Z,65.80
2018-06-29T20:17:31.391Z,66.20
2018-06-29T20:21:29.082Z,66.30
2018-06-29T20:23:58.684Z,66.60
2018-06-29T20:26:27.170Z,67.10
2018-06-29T20:28:55.650Z,67.30
2018-06-29T20:31:24.307Z,67.80
2018-06-29T20:33:52.798Z,68.60
2018-06-29T20:36:21.509Z,68.30
2018-06-29T20:38:50.968Z,68.70
2018-06-29T20:41:19.291Z,68.90
2018-06-29T20:43:47.745Z,68.90
2018-06-29T20:46:17.347Z,69.00
2018-06-29T20:48:46.129Z,68.90
2018-06-29T20:51:15.082Z,68.30
2018-06-29T20:56:11.863Z,68.50
2018-06-29T20:58:40.278Z,68.60
2018-06-29T21:01:08.878Z,68.60
2018-06-29T21:03:37.598Z,68.40
2018-06-29T21:06:06.338Z,68.50
2018-06-29T21:08:35.413Z,68.70
2018-06-29T21:11:04.285Z,69.00
2018-06-29T21:13:32.737Z,69.10
2018-06-29T21:16:01.246Z,69.30
2018-06-29T21:18:30.218Z,69.10
2018-06-29T21:20:58.774Z,68.90
2018-06-29T21:23:27.354Z,68.80
2018-06-29T21:25:55.940Z,68.80
2018-06-29T21:28:24.494Z,68.60
2018-06-29T21:30:53.198Z,68.30
2018-06-29T21:33:21.766Z,68.20
2018-06-29T21:35:50.626Z,67.70
2018-06-29T21:38:19.474Z,67.30
2018-06-29T21:40:48.015Z,67.00
2018-06-29T21:43:16.550Z,66.60
2018-06-29T21:45:45.138Z,66.60
2018-06-29T21:48:13.954Z,66.40
2018-06-29T21:50:42.426Z,66.30
2018-06-29T21:53:11.350Z,66.20
2018-06-29T21:55:39.838Z,65.60
2018-06-29T22:00:41.570Z,65.30
2018-06-29T22:03:12.265Z,64.80
2018-06-29T22:05:41.984Z,64.60
2018-06-29T22:08:11.273Z,64.40
2018-06-29T22:13:09.043Z,63.90
2018-06-29T22:15:37.599Z,63.20
2018-06-29T22:18:06.125Z,63.00
2018-06-29T22:20:34.587Z,62.50
2018-06-29T22:23:03.070Z,62.20
2018-06-29T22:25:31.923Z,62.90
2018-06-29T22:28:00.540Z,62.10
2018-06-29T22:30:29.463Z,62.00
2018-06-29T22:32:57.943Z,62.00
2018-06-29T22:35:26.418Z,61.60
2018-06-29T22:40:23.293Z,61.10
2018-06-29T22:45:19.868Z,61.00
2018-06-29T22:47:48.406Z,61.20
2018-06-29T22:50:16.926Z,60.80
2018-06-29T22:52:45.406Z,61.20
2018-06-29T22:55:13.961Z,61.00
2018-06-29T22:57:42.424Z,61.00
2018-06-29T23:00:10.918Z,61.10
2018-06-29T23:02:39.422Z,61.10
2018-06-29T23:07:36.431Z,61.20
2018-06-29T23:10:05.306Z,61.40
2018-06-29T23:12:33.742Z,61.50
2018-06-29T23:15:02.314Z,61.60
2018-06-29T23:17:30.807Z,62.00
2018-06-29T23:19:59.390Z,62.20
2018-06-29T23:22:27.831Z,62.40
2018-06-29T23:24:56.347Z,62.60
2018-06-29T23:27:24.844Z,62.80
2018-06-29T23:29:53.414Z,62.90
2018-06-29T23:32:21.902Z,63.20
2018-06-29T23:34:50.482Z,63.30
2018-06-29T23:37:18.960Z,63.50
2018-06-29T23:39:47.415Z,63.30
2018-06-29T23:42:15.851Z,63.30
2018-06-29T23:44:44.281Z,63.50
2018-06-29T23:47:12.782Z,63.40
2018-06-29T23:52:09.338Z,63.80
2018-06-29T23:54:37.838Z,64.20
2018-06-29T23:57:06.484Z,64.50
2018-06-29T23:59:34.941Z,64.90
